Wetterdaten der Wetterstation 58769 Nachrodt-Wiblingwerde

Letzte Wetterlage 22.12.2014 16:12
Wetterdiagramm
Tabellarische Darstellung
Datum Temperatur Windchill Feuchte Luftdruck Windrichtung Windstärke Niederschlag
22.12.2014 16:22 9,2 °C 9,2 °C 89 % 1016,6 hPa 135 1.7 0,00 mm
22.12.2014 16:12 9,1 °C 6,8 °C 89 % 1016,5 hPa 180 2.7 0,00 mm
22.12.2014 16:02 9,1 °C 9,1 °C 89 % 1016,4 hPa 180 1.0 0,30 mm
22.12.2014 15:52 9,0 °C 5,2 °C 89 % 1016,6 hPa 135 3.4 0,30 mm
22.12.2014 15:42 8,9 °C 8,9 °C 90 % 1016,7 hPa 180 1.7 0,30 mm
22.12.2014 15:32 8,9 °C 8,9 °C 90 % 1016,2 hPa 225 1.4 0,30 mm
22.12.2014 15:22 8,9 °C 8,9 °C 90 % 1016,3 hPa 0 1.7 0,30 mm
22.12.2014 15:12 8,8 °C 8,8 °C 90 % 1016,6 hPa 180 1.7 0,30 mm
22.12.2014 15:02 8,8 °C 8,8 °C 90 % 1016,5 hPa 0 1.4 0,00 mm
22.12.2014 14:57 8,8 °C 7,1 °C 90 % 1016,2 hPa 135 2.4 0,00 mm
22.12.2014 14:52 8,7 °C 8,7 °C 89 % 1016,3 hPa 293 0.7 0,00 mm
22.12.2014 14:42 8,7 °C 6,3 °C 89 % 1016,5 hPa 180 2.7 0,00 mm
22.12.2014 14:32 8,7 °C 7,0 °C 89 % 1016,5 hPa 225 2.4 0,30 mm
22.12.2014 14:22 8,7 °C 8,7 °C 89 % 1016,4 hPa 270 1.4 0,30 mm
22.12.2014 14:12 8,7 °C 8,7 °C 89 % 1016,1 hPa 45 2.0 0,30 mm
22.12.2014 14:02 8,8 °C 8,8 °C 89 % 1016,2 hPa 0 1.4 0,30 mm
22.12.2014 13:57 8,8 °C 8,8 °C 89 % 1016,4 hPa 158 1.7 0,30 mm
22.12.2014 13:47 8,7 °C 8,7 °C 89 % 1016,3 hPa 225 2.0 0,30 mm
22.12.2014 13:37 8,6 °C 8,6 °C 89 % 1016,1 hPa 68 2.0 0,30 mm
22.12.2014 13:27 8,6 °C 6,2 °C 89 % 1016,3 hPa 180 2.7 0,00 mm
22.12.2014 13:17 8,5 °C 8,5 °C 89 % 1016,6 hPa 158 1.4 0,00 mm
22.12.2014 13:07 8,5 °C 8,5 °C 89 % 1016,8 hPa 315 1.4 0,00 mm
22.12.2014 13:02 8,5 °C 8,5 °C 89 % 1016,7 hPa 225 1.0 0,00 mm
22.12.2014 12:57 8,5 °C 8,5 °C 89 % 1016,4 hPa 270 1.7 0,00 mm
22.12.2014 12:52 8,5 °C 8,5 °C 89 % 1016,8 hPa 180 1.7 0,00 mm
Empfehlen Sie wetter.com
| Mehr
Neue Wetterwarnung

Neue Niederschlagsmeldung
Neue Meldung
Regen Liveticker
    sehr starker Regen/Gewitter
    starker Regen/Gewitter
    mäßiger bis starker Regen
    mäßiger Regen
    leichter bis mäßiger Regen
    kein Regen